createdAt,value
2023-05-13T00:04:58.542Z,2.4
2023-05-13T00:11:18.534Z,2.4
2023-05-13T00:17:41.697Z,3.7
2023-05-13T00:24:01.567Z,3.7
2023-05-13T00:30:24.573Z,2.9
2023-05-13T00:36:44.596Z,2.9
2023-05-13T00:43:07.568Z,3.5
2023-05-13T00:49:27.570Z,3.5
2023-05-13T00:55:50.576Z,2.3
2023-05-13T01:02:10.565Z,2.3
2023-05-13T01:08:33.577Z,4.2
2023-05-13T01:14:53.595Z,4.2
2023-05-13T01:21:16.680Z,4.9
2023-05-13T01:27:36.599Z,4.9
2023-05-13T01:33:59.622Z,4
2023-05-13T01:40:31.517Z,4
2023-05-13T01:46:42.575Z,2.3
2023-05-13T01:53:02.592Z,2.3
2023-05-13T01:59:25.518Z,4.8
2023-05-13T02:05:45.584Z,4.8
2023-05-13T02:12:08.606Z,3.6
2023-05-13T02:18:28.640Z,3.6
2023-05-13T02:24:51.578Z,3.8
2023-05-13T02:31:11.508Z,3.8
2023-05-13T02:37:34.620Z,2.8
2023-05-13T02:43:54.498Z,2.8
2023-05-13T02:50:17.664Z,2.5
2023-05-13T02:56:37.616Z,2.5
2023-05-13T03:03:00.762Z,2.6
2023-05-13T03:09:20.505Z,2.6
2023-05-13T03:15:44.514Z,1.8
2023-05-13T03:32:26.281Z,3.5
2023-05-13T03:38:49.053Z,9.5
2023-05-13T03:45:08.491Z,9.5
2023-05-13T03:51:31.549Z,9.5
2023-05-13T03:57:51.500Z,9.5
2023-05-13T04:04:14.569Z,4.3
2023-05-13T04:10:34.516Z,4.3
2023-05-13T04:16:57.597Z,3.6
2023-05-13T04:23:17.511Z,3.6
2023-05-13T04:29:40.544Z,4
2023-05-13T04:36:00.551Z,4
2023-05-13T04:42:23.559Z,5.1
2023-05-13T04:48:43.620Z,5.1
2023-05-13T04:55:06.630Z,8.3
2023-05-13T05:01:26.577Z,8.3
2023-05-13T05:07:49.613Z,4.7
2023-05-13T05:14:09.568Z,4.7
2023-05-13T05:20:32.576Z,4.4
2023-05-13T05:26:52.602Z,4.4
2023-05-13T05:33:15.597Z,2.9
2023-05-13T05:39:35.660Z,2.9
2023-05-13T05:45:58.615Z,4.1
2023-05-13T05:52:18.555Z,4.1
2023-05-13T05:58:41.582Z,5.5
2023-05-13T06:05:01.534Z,5.5
2023-05-13T06:11:24.600Z,4
2023-05-13T06:17:44.548Z,4
2023-05-13T06:24:07.546Z,4
2023-05-13T06:30:27.612Z,4
2023-05-13T06:36:50.534Z,4.8
2023-05-13T06:43:10.594Z,4.8
2023-05-13T06:49:33.547Z,4.7
2023-05-13T06:55:53.509Z,4.7
2023-05-13T07:02:16.603Z,4
2023-05-13T07:08:36.516Z,4
2023-05-13T07:14:59.516Z,6.1
2023-05-13T07:21:19.557Z,6.1
2023-05-13T07:27:42.547Z,4.6
2023-05-13T07:34:02.522Z,4.6
2023-05-13T07:40:25.590Z,4.4
2023-05-13T07:46:45.535Z,4.4
2023-05-13T07:53:08.560Z,2.8
2023-05-13T07:59:28.521Z,2.8
2023-05-13T08:05:51.678Z,4.3
2023-05-13T08:12:11.526Z,4.3
2023-05-13T08:18:34.581Z,5.4
2023-05-13T08:24:54.543Z,5.4
2023-05-13T08:31:17.510Z,2.5
2023-05-13T08:53:31.045Z,7.4
2023-05-13T08:59:50.491Z,7.4
2023-05-13T09:06:13.550Z,7.4
2023-05-13T09:12:33.678Z,7.4
2023-05-13T09:18:56.556Z,1.8
2023-05-13T09:25:16.565Z,1.8
2023-05-13T09:31:39.610Z,2
2023-05-13T09:37:59.571Z,2
2023-05-13T09:44:22.480Z,2.6
2023-05-13T09:50:42.621Z,2.6
2023-05-13T09:57:05.527Z,2.8
2023-05-13T10:03:25.557Z,2.8
2023-05-13T10:09:48.539Z,2.3
2023-05-13T10:16:08.509Z,2.3
2023-05-13T10:22:31.522Z,2.3
2023-05-13T10:28:51.578Z,2.3
2023-05-13T10:35:14.562Z,3.1
2023-05-13T10:41:34.531Z,3.1
2023-05-13T10:47:57.607Z,4.3
2023-05-13T10:54:17.478Z,4.3
2023-05-13T11:00:40.536Z,2.3
2023-05-13T11:07:00.523Z,2.3
2023-05-13T11:13:23.535Z,3
2023-05-13T11:19:43.537Z,3
2023-05-13T11:26:06.560Z,4.6
2023-05-13T11:32:26.605Z,4.6
2023-05-13T11:38:49.523Z,2.3
2023-05-13T11:45:09.552Z,2.3
2023-05-13T11:51:32.531Z,3.8
2023-05-13T11:57:52.566Z,3.8
2023-05-13T12:04:15.642Z,1.9
2023-05-13T12:10:35.523Z,1.9
2023-05-13T12:16:58.489Z,3.8
2023-05-13T12:23:18.640Z,3.8
2023-05-13T12:29:41.500Z,3.2
2023-05-13T12:36:01.554Z,3.2
2023-05-13T12:42:24.556Z,2.3
2023-05-13T12:48:44.493Z,2.3
2023-05-13T12:55:07.524Z,1.7
2023-05-13T13:01:27.570Z,1.7
2023-05-13T13:07:50.543Z,2.3
2023-05-13T13:14:10.526Z,2.3
2023-05-13T13:20:33.536Z,2.8
2023-05-13T13:26:53.584Z,2.8
2023-05-13T13:33:16.507Z,1.8
2023-05-13T13:39:36.535Z,1.8
2023-05-13T13:45:59.552Z,2
2023-05-13T13:52:19.847Z,2
2023-05-13T13:58:42.623Z,2.4
2023-05-13T14:05:02.523Z,2.4
2023-05-13T14:27:50.452Z,6
2023-05-13T14:34:10.473Z,6
2023-05-13T14:40:33.591Z,4.2
2023-05-13T14:46:53.596Z,4.2
2023-05-13T14:53:16.497Z,2.7
2023-05-13T14:59:36.554Z,2.7
2023-05-13T15:05:59.536Z,1.9
2023-05-13T15:12:19.537Z,1.9
2023-05-13T15:18:42.579Z,3.8
2023-05-13T15:25:04.628Z,3.8
2023-05-13T15:31:27.521Z,2.6
2023-05-13T15:37:47.501Z,2.6
2023-05-13T15:44:10.560Z,1.8
2023-05-13T15:50:30.496Z,1.8
2023-05-13T15:56:53.541Z,2.6
2023-05-13T16:03:13.668Z,2.6
2023-05-13T16:09:36.529Z,2.2
2023-05-13T16:15:56.551Z,2.2
2023-05-13T16:22:19.681Z,1.9
2023-05-13T16:28:40.191Z,1.9
2023-05-13T16:35:02.552Z,1.8
2023-05-13T16:41:22.531Z,1.8
2023-05-13T16:47:45.576Z,2.7
2023-05-13T16:54:05.500Z,2.7
2023-05-13T17:00:28.728Z,1.3
2023-05-13T17:06:48.521Z,1.3
2023-05-13T17:13:11.778Z,1.3
2023-05-13T17:19:31.560Z,1.3
2023-05-13T17:25:54.663Z,2.3
2023-05-13T17:32:14.983Z,2.3
2023-05-13T17:38:37.764Z,1.5
2023-05-13T17:44:57.527Z,1.5
2023-05-13T17:51:20.700Z,3.7
2023-05-13T17:57:40.597Z,3.7
2023-05-13T18:04:03.547Z,3.3
2023-05-13T18:10:23.834Z,3.3
2023-05-13T18:16:48.066Z,1.3
2023-05-13T18:23:07.608Z,1.3
2023-05-13T18:29:30.556Z,2.1
2023-05-13T18:35:50.775Z,2.1
2023-05-13T18:42:13.550Z,2.7
2023-05-13T18:48:33.480Z,2.7
2023-05-13T18:54:56.558Z,5
2023-05-13T19:01:16.654Z,5
2023-05-13T19:07:39.571Z,3.5
2023-05-13T19:13:59.528Z,3.5
2023-05-13T19:37:40.441Z,9.7
2023-05-13T19:44:03.511Z,9.7
2023-05-13T19:50:23.920Z,9.7
2023-05-13T19:56:46.566Z,5.9
2023-05-13T20:03:07.541Z,5.9
2023-05-13T20:09:30.528Z,7.4
2023-05-13T20:15:50.864Z,7.4
2023-05-13T20:22:13.783Z,4.1
2023-05-13T20:28:34.301Z,4.1
2023-05-13T20:34:56.659Z,4.7
2023-05-13T20:41:16.803Z,4.7
2023-05-13T20:47:39.507Z,4.9
2023-05-13T20:53:59.562Z,4.9
2023-05-13T21:00:22.756Z,4.6
2023-05-13T21:06:42.514Z,4.6
2023-05-13T21:13:05.602Z,3.5
2023-05-13T21:19:25.509Z,3.5
2023-05-13T21:25:48.499Z,4.9
2023-05-13T21:32:08.574Z,4.9
2023-05-13T21:38:31.519Z,6.4
2023-05-13T21:44:51.537Z,6.4
2023-05-13T21:51:14.581Z,3.3
2023-05-13T21:57:34.526Z,3.3
2023-05-13T22:21:51.514Z,10.3
2023-05-13T22:28:11.559Z,10.3
2023-05-13T22:34:34.502Z,10.3
2023-05-13T22:40:54.612Z,10.3
2023-05-13T22:47:17.569Z,3.2
2023-05-13T22:53:37.628Z,3.2
2023-05-13T23:00:00.645Z,3.9
2023-05-13T23:06:20.628Z,3.9
2023-05-13T23:12:43.610Z,3.7
2023-05-13T23:19:03.666Z,3.7
2023-05-13T23:25:26.553Z,4
2023-05-13T23:31:46.607Z,4
2023-05-13T23:38:09.586Z,3.9
2023-05-13T23:44:29.542Z,3.9
2023-05-13T23:50:52.602Z,3.7
2023-05-13T23:57:12.582Z,3.7
